sensor_id;sensor_type;location;lat;lon;timestamp;P1;durP1;ratioP1;P2;durP2;ratioP2
34984;SDS011;21190;58.750;17.004;2023-07-30T00:02:22;7.55;;;3.00;;
34984;SDS011;21190;58.750;17.004;2023-07-30T00:04:48;7.38;;;2.00;;
34984;SDS011;21190;58.750;17.004;2023-07-30T00:07:15;9.52;;;2.58;;
34984;SDS011;21190;58.750;17.004;2023-07-30T00:09:42;8.90;;;2.40;;
34984;SDS011;21190;58.750;17.004;2023-07-30T00:12:09;5.15;;;3.00;;
34984;SDS011;21190;58.750;17.004;2023-07-30T00:14:36;5.90;;;2.78;;
34984;SDS011;21190;58.750;17.004;2023-07-30T00:17:03;7.85;;;3.10;;
34984;SDS011;21190;58.750;17.004;2023-07-30T00:19:30;4.00;;;2.38;;
34984;SDS011;21190;58.750;17.004;2023-07-30T00:21:57;5.75;;;2.75;;
34984;SDS011;21190;58.750;17.004;2023-07-30T00:24:24;4.35;;;2.35;;
34984;SDS011;21190;58.750;17.004;2023-07-30T00:26:51;8.70;;;2.70;;
34984;SDS011;21190;58.750;17.004;2023-07-30T00:29:18;5.15;;;2.40;;
34984;SDS011;21190;58.750;17.004;2023-07-30T00:31:45;5.85;;;2.38;;
34984;SDS011;21190;58.750;17.004;2023-07-30T00:34:13;4.85;;;2.10;;
34984;SDS011;21190;58.750;17.004;2023-07-30T00:36:40;2.40;;;1.95;;
34984;SDS011;21190;58.750;17.004;2023-07-30T00:39:06;8.20;;;2.00;;
34984;SDS011;21190;58.750;17.004;2023-07-30T00:41:33;3.15;;;2.08;;
34984;SDS011;21190;58.750;17.004;2023-07-30T00:44:01;3.67;;;2.35;;
34984;SDS011;21190;58.750;17.004;2023-07-30T00:46:28;3.22;;;2.13;;
34984;SDS011;21190;58.750;17.004;2023-07-30T00:48:55;8.52;;;2.47;;
34984;SDS011;21190;58.750;17.004;2023-07-30T00:51:22;2.80;;;2.22;;
34984;SDS011;21190;58.750;17.004;2023-07-30T00:53:50;4.28;;;2.13;;
34984;SDS011;21190;58.750;17.004;2023-07-30T00:56:17;4.95;;;1.83;;
34984;SDS011;21190;58.750;17.004;2023-07-30T00:58:44;7.22;;;2.20;;
34984;SDS011;21190;58.750;17.004;2023-07-30T01:01:14;5.60;;;2.25;;
34984;SDS011;21190;58.750;17.004;2023-07-30T01:03:42;3.67;;;2.35;;
34984;SDS011;21190;58.750;17.004;2023-07-30T01:06:09;3.95;;;2.22;;
34984;SDS011;21190;58.750;17.004;2023-07-30T01:08:36;4.43;;;2.70;;
34984;SDS011;21190;58.750;17.004;2023-07-30T01:11:03;4.90;;;2.20;;
34984;SDS011;21190;58.750;17.004;2023-07-30T01:13:31;4.25;;;2.25;;
34984;SDS011;21190;58.750;17.004;2023-07-30T01:15:59;4.90;;;2.13;;
34984;SDS011;21190;58.750;17.004;2023-07-30T01:18:26;4.63;;;2.50;;
34984;SDS011;21190;58.750;17.004;2023-07-30T01:20:54;6.93;;;3.17;;
34984;SDS011;21190;58.750;17.004;2023-07-30T01:23:25;3.75;;;2.35;;
34984;SDS011;21190;58.750;17.004;2023-07-30T01:25:57;4.38;;;2.72;;
34984;SDS011;21190;58.750;17.004;2023-07-30T01:28:29;5.78;;;2.75;;
34984;SDS011;21190;58.750;17.004;2023-07-30T01:31:02;5.13;;;2.53;;
34984;SDS011;21190;58.750;17.004;2023-07-30T01:33:31;4.60;;;2.55;;
34984;SDS011;21190;58.750;17.004;2023-07-30T01:35:58;7.22;;;3.40;;
34984;SDS011;21190;58.750;17.004;2023-07-30T01:38:26;10.20;;;4.45;;
34984;SDS011;21190;58.750;17.004;2023-07-30T01:40:53;8.43;;;4.50;;
34984;SDS011;21190;58.750;17.004;2023-07-30T01:43:20;6.38;;;2.90;;
34984;SDS011;21190;58.750;17.004;2023-07-30T01:45:47;6.00;;;2.90;;
34984;SDS011;21190;58.750;17.004;2023-07-30T01:48:14;7.75;;;2.70;;
34984;SDS011;21190;58.750;17.004;2023-07-30T01:50:41;6.50;;;3.40;;
34984;SDS011;21190;58.750;17.004;2023-07-30T01:53:09;6.13;;;3.45;;
34984;SDS011;21190;58.750;17.004;2023-07-30T01:55:36;7.35;;;3.35;;
34984;SDS011;21190;58.750;17.004;2023-07-30T01:58:04;9.02;;;2.70;;
34984;SDS011;21190;58.750;17.004;2023-07-30T02:00:31;4.40;;;2.45;;
34984;SDS011;21190;58.750;17.004;2023-07-30T02:02:58;5.88;;;2.38;;
34984;SDS011;21190;58.750;17.004;2023-07-30T02:05:25;8.55;;;2.42;;
34984;SDS011;21190;58.750;17.004;2023-07-30T02:07:52;5.65;;;2.60;;
34984;SDS011;21190;58.750;17.004;2023-07-30T02:10:19;5.70;;;2.83;;
34984;SDS011;21190;58.750;17.004;2023-07-30T02:12:46;3.55;;;2.30;;
34984;SDS011;21190;58.750;17.004;2023-07-30T02:15:13;5.72;;;2.70;;
34984;SDS011;21190;58.750;17.004;2023-07-30T02:17:40;3.72;;;2.53;;
34984;SDS011;21190;58.750;17.004;2023-07-30T02:20:07;4.28;;;2.70;;
34984;SDS011;21190;58.750;17.004;2023-07-30T02:22:35;4.72;;;2.10;;
34984;SDS011;21190;58.750;17.004;2023-07-30T02:25:02;5.68;;;2.80;;
34984;SDS011;21190;58.750;17.004;2023-07-30T02:27:29;3.90;;;2.63;;
34984;SDS011;21190;58.750;17.004;2023-07-30T02:29:56;5.78;;;2.78;;
34984;SDS011;21190;58.750;17.004;2023-07-30T02:32:23;3.95;;;2.20;;
34984;SDS011;21190;58.750;17.004;2023-07-30T02:34:50;5.30;;;2.65;;
34984;SDS011;21190;58.750;17.004;2023-07-30T02:37:17;7.32;;;2.60;;
34984;SDS011;21190;58.750;17.004;2023-07-30T02:39:44;7.03;;;3.00;;
34984;SDS011;21190;58.750;17.004;2023-07-30T02:42:11;7.35;;;2.80;;
34984;SDS011;21190;58.750;17.004;2023-07-30T02:44:38;6.45;;;2.75;;
34984;SDS011;21190;58.750;17.004;2023-07-30T02:47:04;6.82;;;2.65;;
34984;SDS011;21190;58.750;17.004;2023-07-30T02:49:32;5.43;;;3.00;;
34984;SDS011;21190;58.750;17.004;2023-07-30T02:51:58;4.85;;;2.78;;
34984;SDS011;21190;58.750;17.004;2023-07-30T02:54:25;4.30;;;2.72;;
34984;SDS011;21190;58.750;17.004;2023-07-30T02:56:52;5.53;;;2.80;;
34984;SDS011;21190;58.750;17.004;2023-07-30T02:59:19;3.80;;;2.33;;
34984;SDS011;21190;58.750;17.004;2023-07-30T03:01:46;4.85;;;2.40;;
34984;SDS011;21190;58.750;17.004;2023-07-30T03:04:13;5.22;;;2.95;;
34984;SDS011;21190;58.750;17.004;2023-07-30T03:06:40;9.60;;;2.63;;
34984;SDS011;21190;58.750;17.004;2023-07-30T03:09:07;6.43;;;2.92;;
34984;SDS011;21190;58.750;17.004;2023-07-30T03:11:34;6.90;;;2.92;;
34984;SDS011;21190;58.750;17.004;2023-07-30T03:14:02;5.20;;;2.95;;
34984;SDS011;21190;58.750;17.004;2023-07-30T03:16:29;6.97;;;3.20;;
34984;SDS011;21190;58.750;17.004;2023-07-30T03:18:56;5.65;;;3.15;;
34984;SDS011;21190;58.750;17.004;2023-07-30T03:21:23;5.45;;;2.72;;
34984;SDS011;21190;58.750;17.004;2023-07-30T03:23:50;8.43;;;2.95;;
34984;SDS011;21190;58.750;17.004;2023-07-30T03:26:17;4.82;;;2.75;;
34984;SDS011;21190;58.750;17.004;2023-07-30T03:28:44;5.70;;;2.88;;
34984;SDS011;21190;58.750;17.004;2023-07-30T03:31:11;6.25;;;3.15;;
34984;SDS011;21190;58.750;17.004;2023-07-30T03:33:38;4.63;;;2.92;;
34984;SDS011;21190;58.750;17.004;2023-07-30T03:36:05;5.60;;;3.00;;
34984;SDS011;21190;58.750;17.004;2023-07-30T03:38:32;4.32;;;2.85;;
34984;SDS011;21190;58.750;17.004;2023-07-30T03:40:59;7.50;;;2.40;;
34984;SDS011;21190;58.750;17.004;2023-07-30T03:43:26;4.95;;;2.60;;
34984;SDS011;21190;58.750;17.004;2023-07-30T03:45:53;5.13;;;3.15;;
34984;SDS011;21190;58.750;17.004;2023-07-30T03:48:20;5.47;;;2.67;;
34984;SDS011;21190;58.750;17.004;2023-07-30T03:50:47;5.18;;;3.00;;
34984;SDS011;21190;58.750;17.004;2023-07-30T03:53:15;5.38;;;2.58;;
34984;SDS011;21190;58.750;17.004;2023-07-30T03:55:42;5.55;;;3.03;;
34984;SDS011;21190;58.750;17.004;2023-07-30T03:58:09;6.70;;;2.97;;
34984;SDS011;21190;58.750;17.004;2023-07-30T04:00:36;8.30;;;2.78;;
34984;SDS011;21190;58.750;17.004;2023-07-30T04:03:03;3.00;;;2.40;;
34984;SDS011;21190;58.750;17.004;2023-07-30T04:05:30;4.15;;;2.72;;
34984;SDS011;21190;58.750;17.004;2023-07-30T04:07:57;6.60;;;2.78;;
34984;SDS011;21190;58.750;17.004;2023-07-30T04:10:24;3.72;;;2.60;;
34984;SDS011;21190;58.750;17.004;2023-07-30T04:12:51;5.25;;;3.13;;
34984;SDS011;21190;58.750;17.004;2023-07-30T04:15:18;4.82;;;2.78;;
34984;SDS011;21190;58.750;17.004;2023-07-30T04:17:45;7.07;;;2.92;;
34984;SDS011;21190;58.750;17.004;2023-07-30T04:20:12;5.20;;;2.75;;
34984;SDS011;21190;58.750;17.004;2023-07-30T04:22:39;4.30;;;2.83;;
34984;SDS011;21190;58.750;17.004;2023-07-30T04:25:08;7.40;;;2.83;;
34984;SDS011;21190;58.750;17.004;2023-07-30T04:27:37;4.43;;;2.88;;
34984;SDS011;21190;58.750;17.004;2023-07-30T04:30:04;3.97;;;3.08;;
34984;SDS011;21190;58.750;17.004;2023-07-30T04:32:32;4.20;;;2.50;;
34984;SDS011;21190;58.750;17.004;2023-07-30T04:34:59;6.03;;;3.38;;
34984;SDS011;21190;58.750;17.004;2023-07-30T04:37:27;5.53;;;2.63;;
34984;SDS011;21190;58.750;17.004;2023-07-30T04:39:54;5.22;;;3.25;;
34984;SDS011;21190;58.750;17.004;2023-07-30T04:42:21;4.63;;;3.17;;
34984;SDS011;21190;58.750;17.004;2023-07-30T04:44:48;5.03;;;3.42;;
34984;SDS011;21190;58.750;17.004;2023-07-30T04:47:15;8.00;;;3.90;;
34984;SDS011;21190;58.750;17.004;2023-07-30T04:49:42;5.72;;;3.30;;
34984;SDS011;21190;58.750;17.004;2023-07-30T04:52:09;6.88;;;3.38;;
34984;SDS011;21190;58.750;17.004;2023-07-30T04:54:36;5.82;;;3.35;;
34984;SDS011;21190;58.750;17.004;2023-07-30T04:57:04;5.82;;;3.38;;
34984;SDS011;21190;58.750;17.004;2023-07-30T04:59:32;6.80;;;3.92;;
34984;SDS011;21190;58.750;17.004;2023-07-30T05:02:01;4.45;;;3.95;;
34984;SDS011;21190;58.750;17.004;2023-07-30T05:04:29;5.00;;;3.80;;
34984;SDS011;21190;58.750;17.004;2023-07-30T05:06:55;6.65;;;4.07;;
34984;SDS011;21190;58.750;17.004;2023-07-30T05:09:22;9.07;;;4.38;;
34984;SDS011;21190;58.750;17.004;2023-07-30T05:11:49;6.97;;;4.00;;
34984;SDS011;21190;58.750;17.004;2023-07-30T05:14:16;5.82;;;3.80;;
34984;SDS011;21190;58.750;17.004;2023-07-30T05:16:43;5.15;;;3.50;;
34984;SDS011;21190;58.750;17.004;2023-07-30T05:19:10;6.05;;;3.80;;
34984;SDS011;21190;58.750;17.004;2023-07-30T05:21:37;6.72;;;4.15;;
34984;SDS011;21190;58.750;17.004;2023-07-30T05:24:05;4.78;;;3.92;;
34984;SDS011;21190;58.750;17.004;2023-07-30T05:26:33;5.93;;;3.30;;
34984;SDS011;21190;58.750;17.004;2023-07-30T05:29:00;7.60;;;3.95;;
34984;SDS011;21190;58.750;17.004;2023-07-30T05:31:27;8.18;;;4.30;;
34984;SDS011;21190;58.750;17.004;2023-07-30T05:33:54;6.45;;;4.10;;
34984;SDS011;21190;58.750;17.004;2023-07-30T05:36:21;6.47;;;4.72;;
34984;SDS011;21190;58.750;17.004;2023-07-30T05:38:48;11.45;;;4.32;;
34984;SDS011;21190;58.750;17.004;2023-07-30T05:41:15;6.90;;;4.53;;
34984;SDS011;21190;58.750;17.004;2023-07-30T05:43:42;7.28;;;4.70;;
34984;SDS011;21190;58.750;17.004;2023-07-30T05:46:09;6.75;;;4.68;;
34984;SDS011;21190;58.750;17.004;2023-07-30T05:48:36;6.07;;;4.57;;
34984;SDS011;21190;58.750;17.004;2023-07-30T05:51:03;8.07;;;4.78;;
34984;SDS011;21190;58.750;17.004;2023-07-30T05:53:30;7.47;;;4.30;;
34984;SDS011;21190;58.750;17.004;2023-07-30T05:55:57;7.95;;;4.32;;
34984;SDS011;21190;58.750;17.004;2023-07-30T05:58:24;5.50;;;4.28;;
34984;SDS011;21190;58.750;17.004;2023-07-30T06:00:51;5.65;;;4.30;;
34984;SDS011;21190;58.750;17.004;2023-07-30T06:03:18;6.57;;;4.40;;
34984;SDS011;21190;58.750;17.004;2023-07-30T06:05:45;6.72;;;4.10;;
34984;SDS011;21190;58.750;17.004;2023-07-30T06:08:12;6.90;;;4.30;;
34984;SDS011;21190;58.750;17.004;2023-07-30T06:10:39;5.57;;;3.78;;
34984;SDS011;21190;58.750;17.004;2023-07-30T06:13:07;5.68;;;4.10;;
34984;SDS011;21190;58.750;17.004;2023-07-30T06:15:34;5.53;;;4.25;;
34984;SDS011;21190;58.750;17.004;2023-07-30T06:18:01;4.85;;;4.00;;
34984;SDS011;21190;58.750;17.004;2023-07-30T06:20:29;5.03;;;3.88;;
34984;SDS011;21190;58.750;17.004;2023-07-30T06:22:56;5.63;;;4.00;;
34984;SDS011;21190;58.750;17.004;2023-07-30T06:25:23;6.20;;;3.70;;
34984;SDS011;21190;58.750;17.004;2023-07-30T06:27:50;5.75;;;3.88;;
34984;SDS011;21190;58.750;17.004;2023-07-30T06:30:17;4.30;;;3.20;;
34984;SDS011;21190;58.750;17.004;2023-07-30T06:32:44;8.50;;;3.72;;
34984;SDS011;21190;58.750;17.004;2023-07-30T06:35:11;5.38;;;4.00;;
34984;SDS011;21190;58.750;17.004;2023-07-30T06:37:38;5.32;;;3.47;;
34984;SDS011;21190;58.750;17.004;2023-07-30T06:40:05;4.97;;;4.07;;
34984;SDS011;21190;58.750;17.004;2023-07-30T06:42:33;6.20;;;3.85;;
34984;SDS011;21190;58.750;17.004;2023-07-30T06:45:00;4.43;;;3.42;;
34984;SDS011;21190;58.750;17.004;2023-07-30T06:47:27;3.83;;;3.30;;
34984;SDS011;21190;58.750;17.004;2023-07-30T06:49:54;3.50;;;3.20;;
34984;SDS011;21190;58.750;17.004;2023-07-30T06:52:21;3.67;;;2.95;;
34984;SDS011;21190;58.750;17.004;2023-07-30T06:54:48;4.85;;;3.30;;
34984;SDS011;21190;58.750;17.004;2023-07-30T06:57:15;5.15;;;3.10;;
34984;SDS011;21190;58.750;17.004;2023-07-30T06:59:42;3.92;;;2.90;;
34984;SDS011;21190;58.750;17.004;2023-07-30T07:02:09;4.30;;;3.30;;
34984;SDS011;21190;58.750;17.004;2023-07-30T07:04:36;5.32;;;3.42;;
34984;SDS011;21190;58.750;17.004;2023-07-30T07:07:03;6.15;;;3.72;;
34984;SDS011;21190;58.750;17.004;2023-07-30T07:09:30;3.70;;;2.85;;
34984;SDS011;21190;58.750;17.004;2023-07-30T07:11:58;6.72;;;3.70;;
34984;SDS011;21190;58.750;17.004;2023-07-30T07:14:25;3.90;;;3.28;;
34984;SDS011;21190;58.750;17.004;2023-07-30T07:16:53;7.60;;;3.22;;
34984;SDS011;21190;58.750;17.004;2023-07-30T07:19:22;4.45;;;3.10;;
34984;SDS011;21190;58.750;17.004;2023-07-30T07:21:49;5.15;;;3.13;;
34984;SDS011;21190;58.750;17.004;2023-07-30T07:24:16;5.07;;;3.05;;
34984;SDS011;21190;58.750;17.004;2023-07-30T07:26:43;3.55;;;3.20;;
34984;SDS011;21190;58.750;17.004;2023-07-30T07:29:11;4.75;;;3.45;;
34984;SDS011;21190;58.750;17.004;2023-07-30T07:31:38;4.88;;;3.22;;
34984;SDS011;21190;58.750;17.004;2023-07-30T07:34:05;4.40;;;3.15;;
34984;SDS011;21190;58.750;17.004;2023-07-30T07:36:32;4.00;;;2.80;;
34984;SDS011;21190;58.750;17.004;2023-07-30T07:38:59;3.15;;;2.67;;
34984;SDS011;21190;58.750;17.004;2023-07-30T07:41:26;4.68;;;3.17;;
34984;SDS011;21190;58.750;17.004;2023-07-30T07:43:53;3.92;;;3.03;;
34984;SDS011;21190;58.750;17.004;2023-07-30T07:46:20;3.70;;;3.30;;
34984;SDS011;21190;58.750;17.004;2023-07-30T07:48:49;5.18;;;2.97;;
34984;SDS011;21190;58.750;17.004;2023-07-30T07:51:16;3.58;;;2.95;;
34984;SDS011;21190;58.750;17.004;2023-07-30T07:53:42;3.97;;;2.78;;
34984;SDS011;21190;58.750;17.004;2023-07-30T07:56:09;3.33;;;3.00;;
34984;SDS011;21190;58.750;17.004;2023-07-30T07:58:36;3.55;;;2.95;;
34984;SDS011;21190;58.750;17.004;2023-07-30T08:01:03;3.42;;;3.08;;
34984;SDS011;21190;58.750;17.004;2023-07-30T08:03:30;4.30;;;3.22;;
34984;SDS011;21190;58.750;17.004;2023-07-30T08:05:57;4.63;;;3.40;;
34984;SDS011;21190;58.750;17.004;2023-07-30T08:08:27;3.88;;;3.30;;
34984;SDS011;21190;58.750;17.004;2023-07-30T08:10:54;3.53;;;3.00;;
34984;SDS011;21190;58.750;17.004;2023-07-30T08:13:21;3.67;;;3.05;;
34984;SDS011;21190;58.750;17.004;2023-07-30T08:15:49;7.28;;;3.40;;
34984;SDS011;21190;58.750;17.004;2023-07-30T08:18:16;4.20;;;3.35;;
34984;SDS011;21190;58.750;17.004;2023-07-30T08:20:43;4.53;;;3.30;;
34984;SDS011;21190;58.750;17.004;2023-07-30T08:23:10;5.60;;;3.08;;
34984;SDS011;21190;58.750;17.004;2023-07-30T08:25:37;10.27;;;3.42;;
34984;SDS011;21190;58.750;17.004;2023-07-30T08:28:04;5.60;;;3.63;;
34984;SDS011;21190;58.750;17.004;2023-07-30T08:30:31;4.50;;;3.00;;
34984;SDS011;21190;58.750;17.004;2023-07-30T08:32:58;3.83;;;3.10;;
34984;SDS011;21190;58.750;17.004;2023-07-30T08:35:25;6.03;;;3.20;;
34984;SDS011;21190;58.750;17.004;2023-07-30T08:37:53;4.80;;;3.15;;
34984;SDS011;21190;58.750;17.004;2023-07-30T08:40:21;5.60;;;3.47;;
34984;SDS011;21190;58.750;17.004;2023-07-30T08:42:51;5.60;;;3.10;;
34984;SDS011;21190;58.750;17.004;2023-07-30T08:45:19;5.95;;;3.28;;
34984;SDS011;21190;58.750;17.004;2023-07-30T08:47:46;10.13;;;3.60;;
34984;SDS011;21190;58.750;17.004;2023-07-30T08:50:14;3.97;;;3.17;;
34984;SDS011;21190;58.750;17.004;2023-07-30T08:52:41;3.50;;;3.20;;
34984;SDS011;21190;58.750;17.004;2023-07-30T08:55:09;5.22;;;3.97;;
34984;SDS011;21190;58.750;17.004;2023-07-30T08:57:37;4.30;;;3.50;;
34984;SDS011;21190;58.750;17.004;2023-07-30T09:00:06;4.65;;;3.55;;
34984;SDS011;21190;58.750;17.004;2023-07-30T09:02:39;6.95;;;3.80;;
34984;SDS011;21190;58.750;17.004;2023-07-30T09:05:08;4.70;;;3.60;;
34984;SDS011;21190;58.750;17.004;2023-07-30T09:07:35;4.05;;;3.65;;
34984;SDS011;21190;58.750;17.004;2023-07-30T09:10:02;4.93;;;3.55;;
34984;SDS011;21190;58.750;17.004;2023-07-30T09:12:30;4.05;;;3.28;;
34984;SDS011;21190;58.750;17.004;2023-07-30T09:14:58;3.28;;;2.90;;
34984;SDS011;21190;58.750;17.004;2023-07-30T09:17:25;3.65;;;3.35;;
34984;SDS011;21190;58.750;17.004;2023-07-30T09:19:52;4.13;;;3.30;;
34984;SDS011;21190;58.750;17.004;2023-07-30T09:22:23;3.35;;;2.83;;
34984;SDS011;21190;58.750;17.004;2023-07-30T09:24:52;4.25;;;2.70;;
34984;SDS011;21190;58.750;17.004;2023-07-30T09:27:21;2.83;;;2.42;;
34984;SDS011;21190;58.750;17.004;2023-07-30T09:29:52;2.70;;;2.40;;
34984;SDS011;21190;58.750;17.004;2023-07-30T09:32:25;3.10;;;2.60;;
34984;SDS011;21190;58.750;17.004;2023-07-30T09:34:53;3.75;;;2.63;;
34984;SDS011;21190;58.750;17.004;2023-07-30T09:37:21;3.45;;;2.50;;
34984;SDS011;21190;58.750;17.004;2023-07-30T09:39:48;3.33;;;2.60;;
34984;SDS011;21190;58.750;17.004;2023-07-30T09:42:15;3.97;;;2.90;;
34984;SDS011;21190;58.750;17.004;2023-07-30T09:44:43;4.88;;;2.85;;
34984;SDS011;21190;58.750;17.004;2023-07-30T09:47:14;5.70;;;3.03;;
34984;SDS011;21190;58.750;17.004;2023-07-30T09:49:41;6.50;;;3.53;;
34984;SDS011;21190;58.750;17.004;2023-07-30T09:52:08;4.72;;;2.72;;
34984;SDS011;21190;58.750;17.004;2023-07-30T09:54:36;4.13;;;2.25;;
34984;SDS011;21190;58.750;17.004;2023-07-30T09:57:05;2.38;;;2.17;;
34984;SDS011;21190;58.750;17.004;2023-07-30T09:59:32;6.60;;;3.03;;
34984;SDS011;21190;58.750;17.004;2023-07-30T10:01:59;5.07;;;2.80;;
34984;SDS011;21190;58.750;17.004;2023-07-30T10:04:27;3.97;;;2.60;;
34984;SDS011;21190;58.750;17.004;2023-07-30T10:07:00;4.82;;;2.90;;
34984;SDS011;21190;58.750;17.004;2023-07-30T10:09:30;3.03;;;2.70;;
34984;SDS011;21190;58.750;17.004;2023-07-30T10:12:05;3.10;;;2.20;;
34984;SDS011;21190;58.750;17.004;2023-07-30T10:14:32;4.45;;;2.72;;
34984;SDS011;21190;58.750;17.004;2023-07-30T10:16:59;2.67;;;2.28;;
34984;SDS011;21190;58.750;17.004;2023-07-30T10:19:28;3.67;;;2.85;;
34984;SDS011;21190;58.750;17.004;2023-07-30T10:24:41;3.72;;;2.50;;
34984;SDS011;21190;58.750;17.004;2023-07-30T10:27:27;11.97;;;4.00;;
34984;SDS011;21190;58.750;17.004;2023-07-30T10:30:09;10.05;;;3.75;;
34984;SDS011;21190;58.750;17.004;2023-07-30T10:32:41;5.60;;;4.05;;
34984;SDS011;21190;58.750;17.004;2023-07-30T10:35:40;4.75;;;3.22;;
34984;SDS011;21190;58.750;17.004;2023-07-30T10:38:12;6.78;;;3.75;;
34984;SDS011;21190;58.750;17.004;2023-07-30T10:43:47;5.05;;;3.25;;
34984;SDS011;21190;58.750;17.004;2023-07-30T10:46:18;6.65;;;3.67;;
34984;SDS011;21190;58.750;17.004;2023-07-30T10:48:46;6.50;;;3.47;;
34984;SDS011;21190;58.750;17.004;2023-07-30T10:51:15;6.03;;;3.20;;
34984;SDS011;21190;58.750;17.004;2023-07-30T10:53:46;6.03;;;3.33;;
34984;SDS011;21190;58.750;17.004;2023-07-30T10:56:20;6.00;;;2.90;;
34984;SDS011;21190;58.750;17.004;2023-07-30T10:58:52;8.85;;;3.00;;
34984;SDS011;21190;58.750;17.004;2023-07-30T11:01:20;3.97;;;2.95;;
34984;SDS011;21190;58.750;17.004;2023-07-30T11:03:51;4.55;;;3.03;;
34984;SDS011;21190;58.750;17.004;2023-07-30T11:06:25;3.70;;;3.30;;
34984;SDS011;21190;58.750;17.004;2023-07-30T11:08:53;4.75;;;3.42;;
34984;SDS011;21190;58.750;17.004;2023-07-30T11:11:20;8.95;;;5.35;;
34984;SDS011;21190;58.750;17.004;2023-07-30T11:13:49;5.72;;;4.72;;
34984;SDS011;21190;58.750;17.004;2023-07-30T11:16:16;8.00;;;5.22;;
34984;SDS011;21190;58.750;17.004;2023-07-30T11:18:44;9.95;;;5.45;;
34984;SDS011;21190;58.750;17.004;2023-07-30T11:21:13;9.82;;;5.05;;
34984;SDS011;21190;58.750;17.004;2023-07-30T11:23:42;8.10;;;5.38;;
34984;SDS011;21190;58.750;17.004;2023-07-30T11:26:14;6.20;;;5.57;;
34984;SDS011;21190;58.750;17.004;2023-07-30T11:28:44;7.78;;;5.65;;
34984;SDS011;21190;58.750;17.004;2023-07-30T11:31:12;7.72;;;5.38;;
34984;SDS011;21190;58.750;17.004;2023-07-30T11:33:46;7.55;;;5.50;;
34984;SDS011;21190;58.750;17.004;2023-07-30T11:36:15;6.75;;;5.30;;
34984;SDS011;21190;58.750;17.004;2023-07-30T11:38:44;8.20;;;5.50;;
34984;SDS011;21190;58.750;17.004;2023-07-30T11:41:12;8.40;;;5.00;;
34984;SDS011;21190;58.750;17.004;2023-07-30T11:43:44;7.50;;;5.20;;
34984;SDS011;21190;58.750;17.004;2023-07-30T11:46:17;11.98;;;5.15;;
34984;SDS011;21190;58.750;17.004;2023-07-30T11:48:47;9.45;;;5.72;;
34984;SDS011;21190;58.750;17.004;2023-07-30T11:51:25;6.82;;;4.60;;
34984;SDS011;21190;58.750;17.004;2023-07-30T11:53:54;8.80;;;4.15;;
34984;SDS011;21190;58.750;17.004;2023-07-30T11:58:59;7.40;;;5.07;;
34984;SDS011;21190;58.750;17.004;2023-07-30T12:01:30;6.50;;;4.45;;
34984;SDS011;21190;58.750;17.004;2023-07-30T12:03:58;6.15;;;4.30;;
34984;SDS011;21190;58.750;17.004;2023-07-30T12:06:40;5.75;;;3.83;;
34984;SDS011;21190;58.750;17.004;2023-07-30T12:09:20;7.00;;;4.30;;
34984;SDS011;21190;58.750;17.004;2023-07-30T12:14:42;4.38;;;3.40;;
34984;SDS011;21190;58.750;17.004;2023-07-30T12:17:10;4.93;;;2.63;;
34984;SDS011;21190;58.750;17.004;2023-07-30T12:19:37;4.13;;;3.15;;
34984;SDS011;21190;58.750;17.004;2023-07-30T12:22:04;3.75;;;3.00;;
34984;SDS011;21190;58.750;17.004;2023-07-30T12:24:31;8.00;;;4.20;;
34984;SDS011;21190;58.750;17.004;2023-07-30T12:26:58;4.57;;;3.50;;
34984;SDS011;21190;58.750;17.004;2023-07-30T12:29:25;4.63;;;3.40;;
34984;SDS011;21190;58.750;17.004;2023-07-30T12:31:52;4.85;;;3.47;;
34984;SDS011;21190;58.750;17.004;2023-07-30T12:34:20;7.60;;;3.80;;
34984;SDS011;21190;58.750;17.004;2023-07-30T12:36:47;4.80;;;3.28;;
34984;SDS011;21190;58.750;17.004;2023-07-30T12:39:14;4.18;;;3.00;;
34984;SDS011;21190;58.750;17.004;2023-07-30T12:41:41;5.07;;;3.40;;
34984;SDS011;21190;58.750;17.004;2023-07-30T12:44:08;5.57;;;3.03;;
34984;SDS011;21190;58.750;17.004;2023-07-30T12:46:36;4.45;;;3.13;;
34984;SDS011;21190;58.750;17.004;2023-07-30T12:49:03;5.78;;;2.90;;
34984;SDS011;21190;58.750;17.004;2023-07-30T12:51:31;3.00;;;2.70;;
34984;SDS011;21190;58.750;17.004;2023-07-30T12:53:59;3.70;;;2.90;;
34984;SDS011;21190;58.750;17.004;2023-07-30T12:56:26;3.35;;;2.55;;
34984;SDS011;21190;58.750;17.004;2023-07-30T12:58:53;4.93;;;3.15;;
34984;SDS011;21190;58.750;17.004;2023-07-30T13:01:20;4.25;;;2.65;;
34984;SDS011;21190;58.750;17.004;2023-07-30T13:03:47;3.70;;;2.65;;
34984;SDS011;21190;58.750;17.004;2023-07-30T13:06:16;5.20;;;2.70;;
34984;SDS011;21190;58.750;17.004;2023-07-30T13:08:43;2.97;;;2.25;;
34984;SDS011;21190;58.750;17.004;2023-07-30T13:11:10;3.85;;;2.30;;
34984;SDS011;21190;58.750;17.004;2023-07-30T13:13:37;4.18;;;1.90;;
34984;SDS011;21190;58.750;17.004;2023-07-30T13:16:04;3.13;;;2.40;;
34984;SDS011;21190;58.750;17.004;2023-07-30T13:18:31;2.95;;;2.20;;
34984;SDS011;21190;58.750;17.004;2023-07-30T13:20:58;4.68;;;2.60;;
34984;SDS011;21190;58.750;17.004;2023-07-30T13:23:25;4.15;;;2.45;;
34984;SDS011;21190;58.750;17.004;2023-07-30T13:25:52;3.30;;;2.65;;
34984;SDS011;21190;58.750;17.004;2023-07-30T13:28:19;3.35;;;2.47;;
34984;SDS011;21190;58.750;17.004;2023-07-30T13:30:46;3.50;;;2.63;;
34984;SDS011;21190;58.750;17.004;2023-07-30T13:33:13;3.58;;;2.65;;
34984;SDS011;21190;58.750;17.004;2023-07-30T13:35:40;2.97;;;2.53;;
34984;SDS011;21190;58.750;17.004;2023-07-30T13:38:07;3.63;;;2.40;;
34984;SDS011;21190;58.750;17.004;2023-07-30T13:40:34;3.47;;;2.72;;
34984;SDS011;21190;58.750;17.004;2023-07-30T13:43:01;5.88;;;3.53;;
34984;SDS011;21190;58.750;17.004;2023-07-30T13:45:28;4.63;;;2.60;;
34984;SDS011;21190;58.750;17.004;2023-07-30T13:47:55;6.00;;;2.20;;
34984;SDS011;21190;58.750;17.004;2023-07-30T13:50:22;5.88;;;2.53;;
34984;SDS011;21190;58.750;17.004;2023-07-30T13:52:49;2.35;;;2.15;;
34984;SDS011;21190;58.750;17.004;2023-07-30T13:55:15;2.95;;;1.80;;
34984;SDS011;21190;58.750;17.004;2023-07-30T13:57:43;2.75;;;2.03;;
34984;SDS011;21190;58.750;17.004;2023-07-30T14:00:10;3.78;;;2.20;;
34984;SDS011;21190;58.750;17.004;2023-07-30T14:02:37;3.08;;;2.10;;
34984;SDS011;21190;58.750;17.004;2023-07-30T14:05:04;3.28;;;2.20;;
34984;SDS011;21190;58.750;17.004;2023-07-30T14:07:31;4.07;;;2.10;;
34984;SDS011;21190;58.750;17.004;2023-07-30T14:09:58;3.47;;;2.08;;
34984;SDS011;21190;58.750;17.004;2023-07-30T14:12:25;2.85;;;2.10;;
34984;SDS011;21190;58.750;17.004;2023-07-30T14:14:52;2.25;;;2.05;;
34984;SDS011;21190;58.750;17.004;2023-07-30T14:17:19;2.70;;;1.88;;
34984;SDS011;21190;58.750;17.004;2023-07-30T14:19:46;3.03;;;2.28;;
34984;SDS011;21190;58.750;17.004;2023-07-30T14:22:13;3.85;;;2.47;;
34984;SDS011;21190;58.750;17.004;2023-07-30T14:24:40;2.95;;;2.20;;
34984;SDS011;21190;58.750;17.004;2023-07-30T14:27:09;3.28;;;2.20;;
34984;SDS011;21190;58.750;17.004;2023-07-30T14:29:36;5.40;;;3.03;;
34984;SDS011;21190;58.750;17.004;2023-07-30T14:32:03;3.03;;;2.60;;
34984;SDS011;21190;58.750;17.004;2023-07-30T14:34:31;5.90;;;2.75;;
34984;SDS011;21190;58.750;17.004;2023-07-30T14:36:58;3.08;;;2.33;;
34984;SDS011;21190;58.750;17.004;2023-07-30T14:39:25;2.55;;;2.33;;
34984;SDS011;21190;58.750;17.004;2023-07-30T14:41:52;4.90;;;2.70;;
34984;SDS011;21190;58.750;17.004;2023-07-30T14:44:19;4.68;;;2.55;;
34984;SDS011;21190;58.750;17.004;2023-07-30T14:46:46;5.43;;;2.25;;
34984;SDS011;21190;58.750;17.004;2023-07-30T14:49:12;2.40;;;2.20;;